sensor_id;sensor_type;location;lat;lon;timestamp;temperature;humidity
15394;DHT22;7795;47.986;11.868;2023-04-16T00:00:06;8.90;77.90
15394;DHT22;7795;47.986;11.868;2023-04-16T00:02:32;8.90;78.00
15394;DHT22;7795;47.986;11.868;2023-04-16T00:05:00;8.90;78.00
15394;DHT22;7795;47.986;11.868;2023-04-16T00:07:25;8.90;78.00
15394;DHT22;7795;47.986;11.868;2023-04-16T00:09:51;8.90;77.90
15394;DHT22;7795;47.986;11.868;2023-04-16T00:12:17;8.90;78.00
15394;DHT22;7795;47.986;11.868;2023-04-16T00:14:42;8.90;78.10
15394;DHT22;7795;47.986;11.868;2023-04-16T00:17:08;8.90;78.10
15394;DHT22;7795;47.986;11.868;2023-04-16T00:19:34;8.80;78.00
15394;DHT22;7795;47.986;11.868;2023-04-16T00:22:01;8.80;78.10
15394;DHT22;7795;47.986;11.868;2023-04-16T00:24:27;8.80;78.00
15394;DHT22;7795;47.986;11.868;2023-04-16T00:26:53;8.80;78.70
15394;DHT22;7795;47.986;11.868;2023-04-16T00:29:19;8.80;77.90
15394;DHT22;7795;47.986;11.868;2023-04-16T00:31:44;8.70;77.80
15394;DHT22;7795;47.986;11.868;2023-04-16T00:34:10;8.70;77.90
15394;DHT22;7795;47.986;11.868;2023-04-16T00:36:36;8.70;77.90
15394;DHT22;7795;47.986;11.868;2023-04-16T00:39:03;8.70;77.90
15394;DHT22;7795;47.986;11.868;2023-04-16T00:41:29;8.70;78.00
15394;DHT22;7795;47.986;11.868;2023-04-16T00:43:55;8.70;78.00
15394;DHT22;7795;47.986;11.868;2023-04-16T00:46:22;8.70;78.10
15394;DHT22;7795;47.986;11.868;2023-04-16T00:48:48;8.70;78.20
15394;DHT22;7795;47.986;11.868;2023-04-16T00:51:17;8.60;78.20
15394;DHT22;7795;47.986;11.868;2023-04-16T00:53:43;8.60;78.20
15394;DHT22;7795;47.986;11.868;2023-04-16T00:56:11;8.60;78.20
15394;DHT22;7795;47.986;11.868;2023-04-16T00:58:38;8.60;78.30
15394;DHT22;7795;47.986;11.868;2023-04-16T01:01:04;8.60;78.30
15394;DHT22;7795;47.986;11.868;2023-04-16T01:03:36;8.60;78.30
15394;DHT22;7795;47.986;11.868;2023-04-16T01:06:02;8.50;78.40
15394;DHT22;7795;47.986;11.868;2023-04-16T01:08:28;8.60;78.40
15394;DHT22;7795;47.986;11.868;2023-04-16T01:10:54;8.50;78.40
15394;DHT22;7795;47.986;11.868;2023-04-16T01:13:22;8.50;78.50
15394;DHT22;7795;47.986;11.868;2023-04-16T01:15:47;8.50;78.60
15394;DHT22;7795;47.986;11.868;2023-04-16T01:18:14;8.50;78.50
15394;DHT22;7795;47.986;11.868;2023-04-16T01:20:41;8.60;78.70
15394;DHT22;7795;47.986;11.868;2023-04-16T01:23:07;8.60;78.70
15394;DHT22;7795;47.986;11.868;2023-04-16T01:25:33;8.60;78.60
15394;DHT22;7795;47.986;11.868;2023-04-16T01:27:59;8.60;78.50
15394;DHT22;7795;47.986;11.868;2023-04-16T01:30:25;8.60;78.40
15394;DHT22;7795;47.986;11.868;2023-04-16T01:32:51;8.60;78.40
15394;DHT22;7795;47.986;11.868;2023-04-16T01:35:17;8.60;78.50
15394;DHT22;7795;47.986;11.868;2023-04-16T01:37:44;8.50;78.40
15394;DHT22;7795;47.986;11.868;2023-04-16T01:40:10;8.60;78.50
15394;DHT22;7795;47.986;11.868;2023-04-16T01:42:36;8.50;78.40
15394;DHT22;7795;47.986;11.868;2023-04-16T01:45:03;8.60;78.40
15394;DHT22;7795;47.986;11.868;2023-04-16T01:47:29;8.60;78.40
15394;DHT22;7795;47.986;11.868;2023-04-16T01:49:55;8.50;78.40
15394;DHT22;7795;47.986;11.868;2023-04-16T01:52:20;8.50;78.30
15394;DHT22;7795;47.986;11.868;2023-04-16T01:54:48;8.50;78.40
15394;DHT22;7795;47.986;11.868;2023-04-16T01:57:13;8.50;78.50
15394;DHT22;7795;47.986;11.868;2023-04-16T01:59:39;8.50;78.40
15394;DHT22;7795;47.986;11.868;2023-04-16T02:02:08;8.60;78.50
15394;DHT22;7795;47.986;11.868;2023-04-16T02:04:37;8.60;78.50
15394;DHT22;7795;47.986;11.868;2023-04-16T02:07:03;8.60;78.50
15394;DHT22;7795;47.986;11.868;2023-04-16T02:09:29;8.60;78.40
15394;DHT22;7795;47.986;11.868;2023-04-16T02:11:56;8.60;78.40
15394;DHT22;7795;47.986;11.868;2023-04-16T02:14:22;8.60;78.40
15394;DHT22;7795;47.986;11.868;2023-04-16T02:16:50;8.60;78.30
15394;DHT22;7795;47.986;11.868;2023-04-16T02:19:15;8.60;78.30
15394;DHT22;7795;47.986;11.868;2023-04-16T02:21:41;8.60;78.30
15394;DHT22;7795;47.986;11.868;2023-04-16T02:24:07;8.60;78.40
15394;DHT22;7795;47.986;11.868;2023-04-16T02:26:33;8.50;78.40
15394;DHT22;7795;47.986;11.868;2023-04-16T02:29:00;8.50;78.40
15394;DHT22;7795;47.986;11.868;2023-04-16T02:31:26;8.50;78.40
15394;DHT22;7795;47.986;11.868;2023-04-16T02:33:52;8.60;78.50
15394;DHT22;7795;47.986;11.868;2023-04-16T02:36:18;8.50;78.40
15394;DHT22;7795;47.986;11.868;2023-04-16T02:38:44;8.60;78.50
15394;DHT22;7795;47.986;11.868;2023-04-16T02:41:10;8.60;78.40
15394;DHT22;7795;47.986;11.868;2023-04-16T02:43:36;8.60;78.50
15394;DHT22;7795;47.986;11.868;2023-04-16T02:46:03;8.60;78.50
15394;DHT22;7795;47.986;11.868;2023-04-16T02:48:29;8.60;78.60
15394;DHT22;7795;47.986;11.868;2023-04-16T02:50:55;8.60;78.50
15394;DHT22;7795;47.986;11.868;2023-04-16T02:53:20;8.60;78.50
15394;DHT22;7795;47.986;11.868;2023-04-16T02:55:49;8.60;78.50
15394;DHT22;7795;47.986;11.868;2023-04-16T02:58:17;8.60;78.60
15394;DHT22;7795;47.986;11.868;2023-04-16T03:00:42;8.60;78.50
15394;DHT22;7795;47.986;11.868;2023-04-16T03:03:09;8.60;78.50
15394;DHT22;7795;47.986;11.868;2023-04-16T03:05:35;8.60;78.50
15394;DHT22;7795;47.986;11.868;2023-04-16T03:08:02;8.60;78.60
15394;DHT22;7795;47.986;11.868;2023-04-16T03:10:28;8.60;78.70
15394;DHT22;7795;47.986;11.868;2023-04-16T03:12:53;8.60;78.60
15394;DHT22;7795;47.986;11.868;2023-04-16T03:15:19;8.70;78.70
15394;DHT22;7795;47.986;11.868;2023-04-16T03:17:45;8.60;78.60
15394;DHT22;7795;47.986;11.868;2023-04-16T03:20:12;8.70;78.60
15394;DHT22;7795;47.986;11.868;2023-04-16T03:22:39;8.70;79.30
15394;DHT22;7795;47.986;11.868;2023-04-16T03:25:05;8.70;78.50
15394;DHT22;7795;47.986;11.868;2023-04-16T03:27:31;8.70;78.50
15394;DHT22;7795;47.986;11.868;2023-04-16T03:29:57;8.70;78.60
15394;DHT22;7795;47.986;11.868;2023-04-16T03:32:23;8.70;78.50
15394;DHT22;7795;47.986;11.868;2023-04-16T03:34:48;8.70;78.50
15394;DHT22;7795;47.986;11.868;2023-04-16T03:37:15;8.70;78.40
15394;DHT22;7795;47.986;11.868;2023-04-16T03:39:41;8.70;78.40
15394;DHT22;7795;47.986;11.868;2023-04-16T03:42:07;8.70;78.50
15394;DHT22;7795;47.986;11.868;2023-04-16T03:44:33;8.70;78.50
15394;DHT22;7795;47.986;11.868;2023-04-16T03:46:59;8.70;78.50
15394;DHT22;7795;47.986;11.868;2023-04-16T03:49:25;8.70;78.40
15394;DHT22;7795;47.986;11.868;2023-04-16T03:51:50;8.70;78.50
15394;DHT22;7795;47.986;11.868;2023-04-16T03:54:17;8.70;78.60
15394;DHT22;7795;47.986;11.868;2023-04-16T03:56:43;8.70;78.60
15394;DHT22;7795;47.986;11.868;2023-04-16T03:59:09;8.70;78.50
15394;DHT22;7795;47.986;11.868;2023-04-16T04:01:35;8.70;78.60
15394;DHT22;7795;47.986;11.868;2023-04-16T04:04:00;8.70;78.50
15394;DHT22;7795;47.986;11.868;2023-04-16T04:06:26;8.70;78.70
15394;DHT22;7795;47.986;11.868;2023-04-16T04:08:52;8.70;78.70
15394;DHT22;7795;47.986;11.868;2023-04-16T04:11:19;8.70;78.70
15394;DHT22;7795;47.986;11.868;2023-04-16T04:13:45;8.70;78.60
15394;DHT22;7795;47.986;11.868;2023-04-16T04:16:10;8.70;78.60
15394;DHT22;7795;47.986;11.868;2023-04-16T04:18:36;8.70;78.50
15394;DHT22;7795;47.986;11.868;2023-04-16T04:21:04;8.70;78.60
15394;DHT22;7795;47.986;11.868;2023-04-16T04:23:30;8.70;78.70
15394;DHT22;7795;47.986;11.868;2023-04-16T04:25:56;8.60;79.40
15394;DHT22;7795;47.986;11.868;2023-04-16T04:28:23;8.60;78.70
15394;DHT22;7795;47.986;11.868;2023-04-16T04:30:49;8.60;78.70
15394;DHT22;7795;47.986;11.868;2023-04-16T04:33:14;8.60;78.70
15394;DHT22;7795;47.986;11.868;2023-04-16T04:35:40;8.70;78.80
15394;DHT22;7795;47.986;11.868;2023-04-16T04:38:06;8.70;78.70
15394;DHT22;7795;47.986;11.868;2023-04-16T04:40:32;8.70;78.80
15394;DHT22;7795;47.986;11.868;2023-04-16T04:42:57;8.60;78.70
15394;DHT22;7795;47.986;11.868;2023-04-16T04:45:24;8.70;78.80
15394;DHT22;7795;47.986;11.868;2023-04-16T04:47:51;8.70;78.80
15394;DHT22;7795;47.986;11.868;2023-04-16T04:50:17;8.70;78.80
15394;DHT22;7795;47.986;11.868;2023-04-16T04:52:42;8.70;78.80
15394;DHT22;7795;47.986;11.868;2023-04-16T04:55:08;8.70;78.80
15394;DHT22;7795;47.986;11.868;2023-04-16T04:57:34;8.70;78.80
15394;DHT22;7795;47.986;11.868;2023-04-16T05:00:00;8.60;78.60
15394;DHT22;7795;47.986;11.868;2023-04-16T05:02:29;8.70;78.70
15394;DHT22;7795;47.986;11.868;2023-04-16T05:04:55;8.70;78.70
15394;DHT22;7795;47.986;11.868;2023-04-16T05:07:21;8.70;78.70
15394;DHT22;7795;47.986;11.868;2023-04-16T05:09:47;8.70;78.70
15394;DHT22;7795;47.986;11.868;2023-04-16T05:12:12;8.70;78.80
15394;DHT22;7795;47.986;11.868;2023-04-16T05:14:38;8.70;78.80
15394;DHT22;7795;47.986;11.868;2023-04-16T05:17:04;8.70;79.50
15394;DHT22;7795;47.986;11.868;2023-04-16T05:19:31;8.70;78.70
15394;DHT22;7795;47.986;11.868;2023-04-16T05:21:57;8.70;78.70
15394;DHT22;7795;47.986;11.868;2023-04-16T05:24:22;8.70;78.70
15394;DHT22;7795;47.986;11.868;2023-04-16T05:26:48;8.70;78.70
15394;DHT22;7795;47.986;11.868;2023-04-16T05:29:14;8.70;78.70
15394;DHT22;7795;47.986;11.868;2023-04-16T05:31:40;8.70;78.70
15394;DHT22;7795;47.986;11.868;2023-04-16T05:34:05;8.80;78.80
15394;DHT22;7795;47.986;11.868;2023-04-16T05:36:32;8.80;78.70
15394;DHT22;7795;47.986;11.868;2023-04-16T05:38:58;8.80;78.70
15394;DHT22;7795;47.986;11.868;2023-04-16T05:41:24;8.80;78.70
15394;DHT22;7795;47.986;11.868;2023-04-16T05:43:50;8.80;78.50
15394;DHT22;7795;47.986;11.868;2023-04-16T05:46:16;8.80;78.50
15394;DHT22;7795;47.986;11.868;2023-04-16T05:48:41;8.80;78.50
15394;DHT22;7795;47.986;11.868;2023-04-16T05:51:07;8.80;78.50
15394;DHT22;7795;47.986;11.868;2023-04-16T05:53:34;8.90;79.30
15394;DHT22;7795;47.986;11.868;2023-04-16T05:56:00;8.90;78.50
15394;DHT22;7795;47.986;11.868;2023-04-16T05:58:25;8.90;78.50
15394;DHT22;7795;47.986;11.868;2023-04-16T06:00:51;8.90;78.50
15394;DHT22;7795;47.986;11.868;2023-04-16T06:03:17;8.90;78.50
15394;DHT22;7795;47.986;11.868;2023-04-16T06:05:43;9.00;78.60
15394;DHT22;7795;47.986;11.868;2023-04-16T06:08:09;9.00;78.60
15394;DHT22;7795;47.986;11.868;2023-04-16T06:10:36;9.00;78.50
15394;DHT22;7795;47.986;11.868;2023-04-16T06:13:02;9.00;78.50
15394;DHT22;7795;47.986;11.868;2023-04-16T06:15:28;9.00;78.40
15394;DHT22;7795;47.986;11.868;2023-04-16T06:17:55;9.00;78.50
15394;DHT22;7795;47.986;11.868;2023-04-16T06:20:21;9.00;78.60
15394;DHT22;7795;47.986;11.868;2023-04-16T06:22:46;9.00;78.60
15394;DHT22;7795;47.986;11.868;2023-04-16T06:25:12;9.00;78.50
15394;DHT22;7795;47.986;11.868;2023-04-16T06:27:39;9.10;78.60
15394;DHT22;7795;47.986;11.868;2023-04-16T06:30:11;9.10;78.60
15394;DHT22;7795;47.986;11.868;2023-04-16T06:32:37;9.10;78.50
15394;DHT22;7795;47.986;11.868;2023-04-16T06:35:04;9.20;78.40
15394;DHT22;7795;47.986;11.868;2023-04-16T06:37:30;9.20;78.40
15394;DHT22;7795;47.986;11.868;2023-04-16T06:39:55;9.20;78.30
15394;DHT22;7795;47.986;11.868;2023-04-16T06:42:21;9.20;78.20
15394;DHT22;7795;47.986;11.868;2023-04-16T06:44:49;9.20;78.10
15394;DHT22;7795;47.986;11.868;2023-04-16T06:47:15;9.20;78.10
15394;DHT22;7795;47.986;11.868;2023-04-16T06:49:40;9.20;78.10
15394;DHT22;7795;47.986;11.868;2023-04-16T06:52:06;9.20;78.80
15394;DHT22;7795;47.986;11.868;2023-04-16T06:54:32;9.30;78.10
15394;DHT22;7795;47.986;11.868;2023-04-16T06:56:58;9.20;78.10
15394;DHT22;7795;47.986;11.868;2023-04-16T06:59:24;9.20;78.10
15394;DHT22;7795;47.986;11.868;2023-04-16T07:01:51;9.20;78.00
15394;DHT22;7795;47.986;11.868;2023-04-16T07:04:17;9.30;78.10
15394;DHT22;7795;47.986;11.868;2023-04-16T07:06:43;9.30;78.20
15394;DHT22;7795;47.986;11.868;2023-04-16T07:09:08;9.30;78.20
15394;DHT22;7795;47.986;11.868;2023-04-16T07:11:34;9.30;78.10
15394;DHT22;7795;47.986;11.868;2023-04-16T07:14:00;9.40;78.30
15394;DHT22;7795;47.986;11.868;2023-04-16T07:16:26;9.40;78.30
15394;DHT22;7795;47.986;11.868;2023-04-16T07:18:53;9.40;78.20
15394;DHT22;7795;47.986;11.868;2023-04-16T07:21:19;9.50;78.20
15394;DHT22;7795;47.986;11.868;2023-04-16T07:23:45;9.40;78.10
15394;DHT22;7795;47.986;11.868;2023-04-16T07:26:11;9.50;78.10
15394;DHT22;7795;47.986;11.868;2023-04-16T07:28:37;9.50;78.20
15394;DHT22;7795;47.986;11.868;2023-04-16T07:31:02;9.60;78.20
15394;DHT22;7795;47.986;11.868;2023-04-16T07:33:28;9.60;78.10
15394;DHT22;7795;47.986;11.868;2023-04-16T07:35:55;9.60;78.10
15394;DHT22;7795;47.986;11.868;2023-04-16T07:38:21;9.70;78.90
15394;DHT22;7795;47.986;11.868;2023-04-16T07:40:47;9.70;78.00
15394;DHT22;7795;47.986;11.868;2023-04-16T07:43:13;9.70;77.90
15394;DHT22;7795;47.986;11.868;2023-04-16T07:45:40;9.70;77.80
15394;DHT22;7795;47.986;11.868;2023-04-16T07:48:05;9.80;77.90
15394;DHT22;7795;47.986;11.868;2023-04-16T07:50:31;9.80;77.80
15394;DHT22;7795;47.986;11.868;2023-04-16T07:52:58;9.90;77.90
15394;DHT22;7795;47.986;11.868;2023-04-16T07:55:24;9.90;77.80
15394;DHT22;7795;47.986;11.868;2023-04-16T07:57:50;9.90;78.60
15394;DHT22;7795;47.986;11.868;2023-04-16T08:00:16;9.90;77.70
15394;DHT22;7795;47.986;11.868;2023-04-16T08:02:43;10.00;77.70
15394;DHT22;7795;47.986;11.868;2023-04-16T08:05:08;10.00;77.70
15394;DHT22;7795;47.986;11.868;2023-04-16T08:07:35;10.00;77.60
15394;DHT22;7795;47.986;11.868;2023-04-16T08:10:02;10.10;77.60
15394;DHT22;7795;47.986;11.868;2023-04-16T08:12:28;10.10;77.60
15394;DHT22;7795;47.986;11.868;2023-04-16T08:14:54;10.20;77.70
15394;DHT22;7795;47.986;11.868;2023-04-16T08:17:20;10.20;77.60
15394;DHT22;7795;47.986;11.868;2023-04-16T08:19:45;10.20;78.10
15394;DHT22;7795;47.986;11.868;2023-04-16T08:22:11;10.30;77.30
15394;DHT22;7795;47.986;11.868;2023-04-16T08:24:37;10.40;77.30
15394;DHT22;7795;47.986;11.868;2023-04-16T08:27:04;10.40;77.10
15394;DHT22;7795;47.986;11.868;2023-04-16T08:29:30;10.50;77.00
15394;DHT22;7795;47.986;11.868;2023-04-16T08:31:56;10.50;77.00
15394;DHT22;7795;47.986;11.868;2023-04-16T08:34:23;10.60;76.70
15394;DHT22;7795;47.986;11.868;2023-04-16T08:36:48;10.60;76.40
15394;DHT22;7795;47.986;11.868;2023-04-16T08:39:14;10.60;76.30
15394;DHT22;7795;47.986;11.868;2023-04-16T08:41:42;10.70;76.40
15394;DHT22;7795;47.986;11.868;2023-04-16T08:44:13;10.80;76.50
15394;DHT22;7795;47.986;11.868;2023-04-16T08:46:42;10.90;76.50
15394;DHT22;7795;47.986;11.868;2023-04-16T08:49:13;10.90;76.40
15394;DHT22;7795;47.986;11.868;2023-04-16T08:51:42;11.00;77.00
15394;DHT22;7795;47.986;11.868;2023-04-16T08:54:12;11.10;76.30
15394;DHT22;7795;47.986;11.868;2023-04-16T08:56:40;11.10;76.10
15394;DHT22;7795;47.986;11.868;2023-04-16T08:59:06;11.20;76.10
15394;DHT22;7795;47.986;11.868;2023-04-16T09:01:35;11.30;76.20
15394;DHT22;7795;47.986;11.868;2023-04-16T09:04:02;11.40;76.70
15394;DHT22;7795;47.986;11.868;2023-04-16T09:06:29;11.50;75.70
15394;DHT22;7795;47.986;11.868;2023-04-16T09:08:56;11.60;75.60
15394;DHT22;7795;47.986;11.868;2023-04-16T09:11:24;11.70;75.40
15394;DHT22;7795;47.986;11.868;2023-04-16T09:13:51;11.70;75.20
15394;DHT22;7795;47.986;11.868;2023-04-16T09:16:17;11.80;75.20
15394;DHT22;7795;47.986;11.868;2023-04-16T09:18:46;11.90;75.10
15394;DHT22;7795;47.986;11.868;2023-04-16T09:21:12;12.00;74.90
15394;DHT22;7795;47.986;11.868;2023-04-16T09:23:39;12.10;74.80
15394;DHT22;7795;47.986;11.868;2023-04-16T09:26:05;12.20;74.50
15394;DHT22;7795;47.986;11.868;2023-04-16T09:28:38;12.30;74.20
15394;DHT22;7795;47.986;11.868;2023-04-16T09:31:08;12.40;73.40
15394;DHT22;7795;47.986;11.868;2023-04-16T09:33:35;12.40;73.60
15394;DHT22;7795;47.986;11.868;2023-04-16T09:36:02;12.50;73.90
15394;DHT22;7795;47.986;11.868;2023-04-16T09:38:44;12.50;73.70
15394;DHT22;7795;47.986;11.868;2023-04-16T09:41:11;12.60;73.00
15394;DHT22;7795;47.986;11.868;2023-04-16T09:43:38;12.60;73.50
15394;DHT22;7795;47.986;11.868;2023-04-16T09:46:04;12.70;73.30
15394;DHT22;7795;47.986;11.868;2023-04-16T09:48:31;12.70;73.00
15394;DHT22;7795;47.986;11.868;2023-04-16T09:50:57;12.80;72.60
15394;DHT22;7795;47.986;11.868;2023-04-16T09:53:25;12.90;72.30
15394;DHT22;7795;47.986;11.868;2023-04-16T09:55:51;12.90;72.10
15394;DHT22;7795;47.986;11.868;2023-04-16T09:58:17;12.90;72.00
15394;DHT22;7795;47.986;11.868;2023-04-16T10:00:43;12.90;71.80
15394;DHT22;7795;47.986;11.868;2023-04-16T10:03:09;13.00;71.90
15394;DHT22;7795;47.986;11.868;2023-04-16T10:05:35;13.00;71.80
15394;DHT22;7795;47.986;11.868;2023-04-16T10:08:01;13.00;71.50
15394;DHT22;7795;47.986;11.868;2023-04-16T10:10:28;13.00;71.40
15394;DHT22;7795;47.986;11.868;2023-04-16T10:12:54;13.00;71.50
15394;DHT22;7795;47.986;11.868;2023-04-16T10:15:20;13.00;71.50
15394;DHT22;7795;47.986;11.868;2023-04-16T10:17:46;13.00;71.30
15394;DHT22;7795;47.986;11.868;2023-04-16T10:20:13;13.10;71.40
15394;DHT22;7795;47.986;11.868;2023-04-16T10:22:39;13.10;72.00
15394;DHT22;7795;47.986;11.868;2023-04-16T10:25:06;13.10;71.20
15394;DHT22;7795;47.986;11.868;2023-04-16T10:27:34;13.10;71.00
15394;DHT22;7795;47.986;11.868;2023-04-16T10:30:01;13.10;70.90
15394;DHT22;7795;47.986;11.868;2023-04-16T10:32:28;13.10;70.90
15394;DHT22;7795;47.986;11.868;2023-04-16T10:34:55;13.10;70.90
15394;DHT22;7795;47.986;11.868;2023-04-16T10:37:28;13.20;71.00
15394;DHT22;7795;47.986;11.868;2023-04-16T10:39:54;13.20;70.80
15394;DHT22;7795;47.986;11.868;2023-04-16T10:42:20;13.20;71.10
15394;DHT22;7795;47.986;11.868;2023-04-16T10:44:47;13.20;71.10
15394;DHT22;7795;47.986;11.868;2023-04-16T10:47:13;13.20;71.00
15394;DHT22;7795;47.986;11.868;2023-04-16T10:49:40;13.20;70.90
15394;DHT22;7795;47.986;11.868;2023-04-16T10:52:10;13.20;70.60
15394;DHT22;7795;47.986;11.868;2023-04-16T10:54:37;13.20;70.40
15394;DHT22;7795;47.986;11.868;2023-04-16T10:57:04;13.20;70.60
15394;DHT22;7795;47.986;11.868;2023-04-16T10:59:31;13.10;70.60
15394;DHT22;7795;47.986;11.868;2023-04-16T11:02:00;13.10;70.60
15394;DHT22;7795;47.986;11.868;2023-04-16T11:04:28;13.10;70.50
15394;DHT22;7795;47.986;11.868;2023-04-16T11:07:06;13.10;70.50
15394;DHT22;7795;47.986;11.868;2023-04-16T11:09:43;13.10;70.20
15394;DHT22;7795;47.986;11.868;2023-04-16T11:12:13;13.20;70.20
15394;DHT22;7795;47.986;11.868;2023-04-16T11:14:39;13.20;70.60
15394;DHT22;7795;47.986;11.868;2023-04-16T11:17:07;13.20;70.60
15394;DHT22;7795;47.986;11.868;2023-04-16T11:19:34;13.20;70.50
15394;DHT22;7795;47.986;11.868;2023-04-16T11:22:01;13.20;70.40
15394;DHT22;7795;47.986;11.868;2023-04-16T11:24:28;13.20;70.60
15394;DHT22;7795;47.986;11.868;2023-04-16T11:26:55;13.20;70.50
15394;DHT22;7795;47.986;11.868;2023-04-16T11:29:21;13.30;70.40
15394;DHT22;7795;47.986;11.868;2023-04-16T11:31:49;13.30;70.00
15394;DHT22;7795;47.986;11.868;2023-04-16T11:34:17;13.30;70.00
15394;DHT22;7795;47.986;11.868;2023-04-16T11:36:43;13.30;69.90
15394;DHT22;7795;47.986;11.868;2023-04-16T11:39:09;13.30;69.70
15394;DHT22;7795;47.986;11.868;2023-04-16T11:41:41;13.30;70.00
15394;DHT22;7795;47.986;11.868;2023-04-16T11:44:16;13.40;69.90
15394;DHT22;7795;47.986;11.868;2023-04-16T11:46:42;13.40;69.90
15394;DHT22;7795;47.986;11.868;2023-04-16T11:49:08;13.40;70.20
15394;DHT22;7795;47.986;11.868;2023-04-16T11:51:39;13.40;70.00
15394;DHT22;7795;47.986;11.868;2023-04-16T11:54:05;13.40;69.80
15394;DHT22;7795;47.986;11.868;2023-04-16T11:56:34;13.50;70.00
15394;DHT22;7795;47.986;11.868;2023-04-16T11:59:07;13.50;70.00
15394;DHT22;7795;47.986;11.868;2023-04-16T12:01:34;13.50;69.60
15394;DHT22;7795;47.986;11.868;2023-04-16T12:04:01;13.60;69.90
15394;DHT22;7795;47.986;11.868;2023-04-16T12:06:27;13.60;69.60
15394;DHT22;7795;47.986;11.868;2023-04-16T12:08:54;13.70;69.60
15394;DHT22;7795;47.986;11.868;2023-04-16T12:11:20;13.70;69.40
15394;DHT22;7795;47.986;11.868;2023-04-16T12:14:07;13.80;70.40
15394;DHT22;7795;47.986;11.868;2023-04-16T12:16:33;13.80;68.90
15394;DHT22;7795;47.986;11.868;2023-04-16T12:18:59;13.90;69.50
15394;DHT22;7795;47.986;11.868;2023-04-16T12:21:38;13.90;69.50
15394;DHT22;7795;47.986;11.868;2023-04-16T12:24:08;14.00;69.20
15394;DHT22;7795;47.986;11.868;2023-04-16T12:26:38;14.00;69.20
15394;DHT22;7795;47.986;11.868;2023-04-16T12:29:15;14.10;68.90
15394;DHT22;7795;47.986;11.868;2023-04-16T12:31:41;14.10;68.50
15394;DHT22;7795;47.986;11.868;2023-04-16T12:34:07;14.20;68.80
15394;DHT22;7795;47.986;11.868;2023-04-16T12:36:33;14.20;68.50
15394;DHT22;7795;47.986;11.868;2023-04-16T12:38:58;14.20;68.10
15394;DHT22;7795;47.986;11.868;2023-04-16T12:41:25;14.20;68.00
15394;DHT22;7795;47.986;11.868;2023-04-16T12:43:51;14.20;68.00
15394;DHT22;7795;47.986;11.868;2023-04-16T12:46:17;14.20;68.10
15394;DHT22;7795;47.986;11.868;2023-04-16T12:48:43;14.20;68.10
15394;DHT22;7795;47.986;11.868;2023-04-16T12:51:09;14.20;68.10
15394;DHT22;7795;47.986;11.868;2023-04-16T12:53:34;14.20;68.20
15394;DHT22;7795;47.986;11.868;2023-04-16T12:56:00;14.20;68.10
15394;DHT22;7795;47.986;11.868;2023-04-16T12:58:28;14.10;67.90
15394;DHT22;7795;47.986;11.868;2023-04-16T13:00:53;14.10;67.90
15394;DHT22;7795;47.986;11.868;2023-04-16T13:03:19;14.10;68.10
15394;DHT22;7795;47.986;11.868;2023-04-16T13:05:45;14.10;68.20
15394;DHT22;7795;47.986;11.868;2023-04-16T13:08:11;14.10;68.20
15394;DHT22;7795;47.986;11.868;2023-04-16T13:10:37;14.10;68.20
15394;DHT22;7795;47.986;11.868;2023-04-16T13:13:04;14.10;68.10
15394;DHT22;7795;47.986;11.868;2023-04-16T13:15:31;14.10;68.00
15394;DHT22;7795;47.986;11.868;2023-04-16T13:17:56;14.10;67.70
15394;DHT22;7795;47.986;11.868;2023-04-16T13:20:22;14.10;67.80
15394;DHT22;7795;47.986;11.868;2023-04-16T13:22:48;14.10;67.90
15394;DHT22;7795;47.986;11.868;2023-04-16T13:25:14;14.10;67.90
15394;DHT22;7795;47.986;11.868;2023-04-16T13:27:40;14.10;67.80
15394;DHT22;7795;47.986;11.868;2023-04-16T13:30:06;14.10;67.80
15394;DHT22;7795;47.986;11.868;2023-04-16T13:32:34;14.10;67.60
15394;DHT22;7795;47.986;11.868;2023-04-16T13:34:59;14.10;67.70
15394;DHT22;7795;47.986;11.868;2023-04-16T13:37:25;14.10;67.90
15394;DHT22;7795;47.986;11.868;2023-04-16T13:39:51;14.00;67.80
15394;DHT22;7795;47.986;11.868;2023-04-16T13:42:17;14.00;67.80
15394;DHT22;7795;47.986;11.868;2023-04-16T13:44:42;14.00;67.80
15394;DHT22;7795;47.986;11.868;2023-04-16T13:47:09;14.00;67.70
15394;DHT22;7795;47.986;11.868;2023-04-16T13:49:37;13.90;67.60
15394;DHT22;7795;47.986;11.868;2023-04-16T13:52:03;13.90;68.40
15394;DHT22;7795;47.986;11.868;2023-04-16T13:54:29;13.90;67.80
15394;DHT22;7795;47.986;11.868;2023-04-16T13:56:54;13.90;67.80
15394;DHT22;7795;47.986;11.868;2023-04-16T13:59:20;13.90;67.90
15394;DHT22;7795;47.986;11.868;2023-04-16T14:01:46;13.90;68.10
15394;DHT22;7795;47.986;11.868;2023-04-16T14:04:12;13.80;68.10
15394;DHT22;7795;47.986;11.868;2023-04-16T14:06:39;13.80;68.10
15394;DHT22;7795;47.986;11.868;2023-04-16T14:09:05;13.80;68.10
15394;DHT22;7795;47.986;11.868;2023-04-16T14:11:31;13.80;68.10
15394;DHT22;7795;47.986;11.868;2023-04-16T14:13:57;13.80;68.00
15394;DHT22;7795;47.986;11.868;2023-04-16T14:16:22;13.80;68.00
15394;DHT22;7795;47.986;11.868;2023-04-16T14:18:48;13.80;67.90
15394;DHT22;7795;47.986;11.868;2023-04-16T14:21:16;13.70;67.90
15394;DHT22;7795;47.986;11.868;2023-04-16T14:23:43;13.70;68.80
15394;DHT22;7795;47.986;11.868;2023-04-16T14:26:09;13.70;67.90
15394;DHT22;7795;47.986;11.868;2023-04-16T14:28:34;13.60;67.90
15394;DHT22;7795;47.986;11.868;2023-04-16T14:31:00;13.50;68.00
15394;DHT22;7795;47.986;11.868;2023-04-16T14:33:26;13.50;68.10
15394;DHT22;7795;47.986;11.868;2023-04-16T14:35:52;13.40;68.20
15394;DHT22;7795;47.986;11.868;2023-04-16T14:38:18;13.40;68.40
15394;DHT22;7795;47.986;11.868;2023-04-16T14:40:46;13.30;68.50
15394;DHT22;7795;47.986;11.868;2023-04-16T14:43:12;13.30;68.60
15394;DHT22;7795;47.986;11.868;2023-04-16T14:45:38;13.30;68.60
15394;DHT22;7795;47.986;11.868;2023-04-16T14:48:04;13.20;68.70
15394;DHT22;7795;47.986;11.868;2023-04-16T14:50:30;13.20;68.80
15394;DHT22;7795;47.986;11.868;2023-04-16T14:52:58;13.20;69.00
15394;DHT22;7795;47.986;11.868;2023-04-16T14:55:23;13.10;69.00
15394;DHT22;7795;47.986;11.868;2023-04-16T14:57:50;13.10;69.10
15394;DHT22;7795;47.986;11.868;2023-04-16T15:00:16;13.10;69.20
15394;DHT22;7795;47.986;11.868;2023-04-16T15:02:43;13.10;69.30
15394;DHT22;7795;47.986;11.868;2023-04-16T15:05:09;13.10;69.30
15394;DHT22;7795;47.986;11.868;2023-04-16T15:07:35;13.10;69.30
15394;DHT22;7795;47.986;11.868;2023-04-16T15:10:00;13.10;69.20
15394;DHT22;7795;47.986;11.868;2023-04-16T15:12:26;13.10;69.30
15394;DHT22;7795;47.986;11.868;2023-04-16T15:14:53;13.10;69.40
15394;DHT22;7795;47.986;11.868;2023-04-16T15:17:19;13.10;70.20
15394;DHT22;7795;47.986;11.868;2023-04-16T15:19:45;13.10;69.40
15394;DHT22;7795;47.986;11.868;2023-04-16T15:22:12;13.10;69.50
15394;DHT22;7795;47.986;11.868;2023-04-16T15:24:39;13.10;69.60
15394;DHT22;7795;47.986;11.868;2023-04-16T15:27:04;13.10;69.50
15394;DHT22;7795;47.986;11.868;2023-04-16T15:29:31;13.20;69.60
15394;DHT22;7795;47.986;11.868;2023-04-16T15:31:58;13.10;69.50